createdAt,value
2019-02-26T00:00:10.277Z,70.40
2019-02-26T00:02:41.826Z,70.30
2019-02-26T00:05:09.274Z,69.90
2019-02-26T00:07:36.733Z,70.20
2019-02-26T00:10:05.289Z,71.00
2019-02-26T00:12:36.770Z,71.30
2019-02-26T00:15:05.848Z,71.00
2019-02-26T00:17:36.179Z,71.20
2019-02-26T00:20:05.543Z,71.50
2019-02-26T00:22:32.390Z,71.50
2019-02-26T00:25:03.806Z,71.00
2019-02-26T00:27:31.149Z,71.00
2019-02-26T00:29:59.434Z,71.50
2019-02-26T00:32:26.716Z,71.40
2019-02-26T00:34:55.695Z,71.60
2019-02-26T00:37:24.324Z,71.00
2019-02-26T00:39:54.178Z,71.10
2019-02-26T00:42:23.770Z,71.50
2019-02-26T00:44:53.284Z,71.70
2019-02-26T00:47:20.301Z,71.20
2019-02-26T00:49:48.543Z,71.30
2019-02-26T00:52:16.928Z,71.60
2019-02-26T00:54:44.307Z,71.60
2019-02-26T00:57:13.851Z,71.40
2019-02-26T00:59:43.594Z,71.70
2019-02-26T01:02:10.874Z,71.60
2019-02-26T01:04:39.095Z,71.80
2019-02-26T01:07:07.550Z,71.70
2019-02-26T01:09:35.138Z,71.60
2019-02-26T01:12:02.613Z,71.80
2019-02-26T01:14:30.050Z,71.70
2019-02-26T01:16:57.350Z,71.60
2019-02-26T01:19:24.786Z,71.30
2019-02-26T01:21:52.206Z,71.80
2019-02-26T01:24:21.320Z,71.20
2019-02-26T01:26:48.838Z,71.30
2019-02-26T01:29:18.603Z,71.60
2019-02-26T01:31:45.424Z,71.60
2019-02-26T01:34:14.086Z,71.80
2019-02-26T01:36:42.717Z,71.30
2019-02-26T01:39:13.468Z,71.30
2019-02-26T01:41:43.402Z,71.40
2019-02-26T01:44:09.918Z,71.70
2019-02-26T01:46:38.975Z,71.70
2019-02-26T01:49:06.650Z,72.30
2019-02-26T01:51:34.050Z,71.80
2019-02-26T01:54:01.513Z,71.80
2019-02-26T01:56:28.913Z,72.20
2019-02-26T01:58:57.103Z,71.50
2019-02-26T02:01:26.199Z,71.90
2019-02-26T02:03:56.251Z,71.90
2019-02-26T02:06:23.180Z,71.50
2019-02-26T02:08:52.991Z,71.40
2019-02-26T02:11:23.566Z,71.30
2019-02-26T02:13:49.489Z,71.50
2019-02-26T02:16:16.897Z,71.90
2019-02-26T02:18:48.070Z,71.50
2019-02-26T02:21:14.080Z,71.40
2019-02-26T02:23:42.106Z,71.50
2019-02-26T02:26:11.624Z,71.70
2019-02-26T02:28:39.953Z,71.70
2019-02-26T02:31:07.386Z,71.50
2019-02-26T02:33:35.436Z,71.70
2019-02-26T02:36:04.093Z,71.50
2019-02-26T02:38:31.522Z,71.00
2019-02-26T02:40:59.383Z,71.30
2019-02-26T02:43:26.897Z,71.20
2019-02-26T02:45:56.417Z,71.50
2019-02-26T02:48:23.632Z,71.60
2019-02-26T02:50:50.984Z,72.00
2019-02-26T02:53:21.020Z,72.00
2019-02-26T02:55:49.507Z,71.90
2019-02-26T02:58:18.222Z,70.90
2019-02-26T03:00:48.371Z,70.80
2019-02-26T03:03:15.430Z,70.80
2019-02-26T03:05:43.837Z,71.20
2019-02-26T03:08:13.963Z,71.40
2019-02-26T03:10:43.092Z,71.70
2019-02-26T03:13:10.612Z,72.10
2019-02-26T03:15:38.004Z,72.40
2019-02-26T03:18:07.180Z,72.40
2019-02-26T03:20:39.352Z,72.90
2019-02-26T03:23:04.602Z,72.70
2019-02-26T03:25:33.112Z,72.30
2019-02-26T03:28:00.604Z,72.10
2019-02-26T03:30:37.039Z,72.00
2019-02-26T03:33:03.721Z,72.20
2019-02-26T03:35:26.406Z,72.30
2019-02-26T03:37:55.574Z,72.20
2019-02-26T03:40:26.352Z,72.20
2019-02-26T03:42:52.639Z,72.50
2019-02-26T03:45:23.829Z,72.20
2019-02-26T03:47:49.426Z,72.50
2019-02-26T03:50:16.854Z,72.50
2019-02-26T03:52:44.788Z,72.80
2019-02-26T03:55:15.490Z,73.30
2019-02-26T03:57:46.924Z,73.30
2019-02-26T04:00:14.140Z,73.00
2019-02-26T04:02:43.345Z,72.80
2019-02-26T04:05:10.750Z,72.70
2019-02-26T04:07:38.194Z,72.30
2019-02-26T04:10:05.798Z,72.50
2019-02-26T04:12:36.327Z,72.50
2019-02-26T04:15:02.550Z,72.30
2019-02-26T04:17:30.750Z,72.50
2019-02-26T04:19:58.927Z,73.00
2019-02-26T04:22:27.591Z,72.70
2019-02-26T04:25:00.810Z,72.60
2019-02-26T04:27:59.035Z,72.60
2019-02-26T04:31:10.827Z,72.50
2019-02-26T04:34:20.027Z,72.50
2019-02-26T04:37:17.787Z,73.00
2019-02-26T04:40:27.224Z,72.80
2019-02-26T04:43:58.537Z,73.30
2019-02-26T04:46:39.602Z,73.30
2019-02-26T04:49:07.288Z,73.80
2019-02-26T04:51:36.353Z,73.40
2019-02-26T04:54:04.421Z,73.40
2019-02-26T04:56:36.023Z,73.20
2019-02-26T04:59:03.467Z,72.90
2019-02-26T05:01:30.470Z,72.70
2019-02-26T05:03:57.807Z,72.60
2019-02-26T05:06:45.449Z,72.70
2019-02-26T05:09:12.898Z,72.60
2019-02-26T05:11:40.824Z,72.50
2019-02-26T05:14:09.113Z,72.60
2019-02-26T05:16:40.146Z,72.70
2019-02-26T05:19:06.717Z,72.90
2019-02-26T05:21:35.520Z,72.70
2019-02-26T05:24:03.456Z,73.10
2019-02-26T05:26:30.914Z,73.50
2019-02-26T05:28:58.508Z,73.30
2019-02-26T05:31:25.971Z,73.30
2019-02-26T05:34:15.189Z,73.20
2019-02-26T05:36:45.855Z,73.60
2019-02-26T05:39:11.427Z,73.50
2019-02-26T05:41:40.590Z,73.50
2019-02-26T05:44:10.569Z,73.50
2019-02-26T05:46:37.429Z,73.20
2019-02-26T05:49:06.860Z,73.20
2019-02-26T05:51:36.012Z,73.50
2019-02-26T05:54:07.782Z,73.60
2019-02-26T05:56:34.061Z,73.60
2019-02-26T05:59:04.322Z,73.60
2019-02-26T06:01:31.026Z,73.70
2019-02-26T06:03:58.437Z,73.20
2019-02-26T06:06:25.809Z,72.90
2019-02-26T06:08:55.182Z,72.80
2019-02-26T06:11:22.520Z,72.80
2019-02-26T06:13:50.287Z,72.90
2019-02-26T06:16:19.748Z,73.10
2019-02-26T06:18:51.294Z,73.20
2019-02-26T06:21:20.430Z,73.10
2019-02-26T06:23:53.499Z,72.80
2019-02-26T06:26:20.962Z,73.00
2019-02-26T06:28:52.735Z,73.20
2019-02-26T06:31:22.178Z,73.40
2019-02-26T06:33:50.647Z,73.40
2019-02-26T06:36:19.190Z,73.30
2019-02-26T06:38:49.635Z,73.30
2019-02-26T06:41:16.850Z,73.60
2019-02-26T06:43:47.718Z,72.90
2019-02-26T06:46:14.150Z,72.90
2019-02-26T06:48:42.052Z,72.80
2019-02-26T06:51:09.371Z,73.00
2019-02-26T06:53:36.696Z,73.40
2019-02-26T06:56:04.230Z,73.50
2019-02-26T06:58:31.691Z,73.50
2019-02-26T07:00:59.426Z,73.70
2019-02-26T07:03:27.140Z,73.70
2019-02-26T07:05:55.201Z,73.80
2019-02-26T07:08:24.198Z,73.80
2019-02-26T07:10:52.271Z,73.60
2019-02-26T07:13:19.691Z,73.30
2019-02-26T07:15:46.999Z,73.40
2019-02-26T07:18:17.143Z,73.70
2019-02-26T07:20:46.911Z,74.00
2019-02-26T07:23:15.438Z,74.10
2019-02-26T07:25:44.109Z,74.00
2019-02-26T07:28:11.536Z,74.10
2019-02-26T07:30:39.884Z,74.40
2019-02-26T07:33:09.958Z,74.60
2019-02-26T07:35:39.221Z,74.50
2019-02-26T07:38:06.740Z,74.70
2019-02-26T07:40:35.923Z,74.50
2019-02-26T07:43:07.004Z,74.40
2019-02-26T07:45:32.718Z,74.70
2019-02-26T07:48:01.015Z,74.90
2019-02-26T07:50:31.386Z,75.00
2019-02-26T07:52:59.431Z,75.40
2019-02-26T07:55:27.669Z,75.20
2019-02-26T07:57:55.239Z,75.10
2019-02-26T08:00:23.109Z,75.50
2019-02-26T08:02:52.039Z,75.50
2019-02-26T08:05:21.312Z,75.30
2019-02-26T08:07:51.930Z,75.50
2019-02-26T08:10:19.582Z,75.30
2019-02-26T08:12:47.260Z,75.10
2019-02-26T08:15:15.757Z,73.90
2019-02-26T08:17:47.761Z,73.80
2019-02-26T08:20:14.856Z,73.40
2019-02-26T08:22:42.412Z,73.50
2019-02-26T08:25:10.261Z,73.50
2019-02-26T08:27:38.130Z,73.40
2019-02-26T08:30:08.900Z,73.60
2019-02-26T08:32:36.385Z,73.30
2019-02-26T08:35:04.832Z,73.40
2019-02-26T08:37:32.180Z,73.00
2019-02-26T08:39:59.687Z,72.70
2019-02-26T08:42:27.069Z,73.20
2019-02-26T08:44:55.932Z,72.90
2019-02-26T08:47:23.714Z,72.80
2019-02-26T08:49:51.156Z,72.40
2019-02-26T08:52:21.510Z,71.60
2019-02-26T08:54:47.870Z,72.40
2019-02-26T08:57:15.321Z,73.30
2019-02-26T08:59:45.464Z,72.90
2019-02-26T09:02:12.200Z,72.50
2019-02-26T09:04:40.721Z,72.80
2019-02-26T09:07:08.851Z,71.90
2019-02-26T09:09:36.271Z,71.50
2019-02-26T09:12:03.687Z,71.40
2019-02-26T09:14:34.475Z,70.60
2019-02-26T09:17:02.142Z,70.50
2019-02-26T09:19:31.122Z,70.50
2019-02-26T09:21:59.451Z,70.10
2019-02-26T09:24:26.784Z,69.90
2019-02-26T09:26:54.942Z,68.80
2019-02-26T09:29:23.907Z,69.60
2019-02-26T09:31:51.358Z,68.40
2019-02-26T09:34:18.811Z,67.20
2019-02-26T09:36:50.645Z,66.60
2019-02-26T09:39:15.562Z,65.90
2019-02-26T09:41:45.445Z,63.80
2019-02-26T09:44:12.255Z,62.20
2019-02-26T09:46:41.922Z,61.60
2019-02-26T09:49:12.346Z,61.20
2019-02-26T09:51:40.017Z,59.00
2019-02-26T09:54:07.500Z,57.20
2019-02-26T09:56:34.942Z,57.90
2019-02-26T09:59:04.614Z,52.60
2019-02-26T10:01:33.685Z,49.50
2019-02-26T10:04:03.213Z,49.00
2019-02-26T10:06:30.693Z,47.20
2019-02-26T10:08:58.154Z,46.30
2019-02-26T10:11:27.904Z,44.50
2019-02-26T10:13:54.807Z,42.30
2019-02-26T10:16:23.918Z,42.00
2019-02-26T10:18:52.383Z,41.40
2019-02-26T10:21:21.123Z,40.90
2019-02-26T10:23:51.453Z,40.00
2019-02-26T10:26:18.740Z,39.70
2019-02-26T10:28:51.010Z,38.80
2019-02-26T10:31:15.804Z,37.50
2019-02-26T10:33:45.723Z,36.10
2019-02-26T10:36:13.494Z,35.20
2019-02-26T10:38:41.768Z,34.70
2019-02-26T10:41:09.587Z,35.00
2019-02-26T10:43:36.922Z,34.00
2019-02-26T10:46:04.403Z,31.60
2019-02-26T10:48:31.757Z,28.50
2019-02-26T10:50:59.149Z,28.50
2019-02-26T10:53:26.605Z,28.00
2019-02-26T10:55:54.424Z,25.00
2019-02-26T10:58:21.870Z,25.30
2019-02-26T11:00:53.186Z,24.70
2019-02-26T11:03:21.083Z,22.80
2019-02-26T11:05:51.718Z,23.10
2019-02-26T11:08:17.786Z,22.50
2019-02-26T11:10:47.871Z,22.20
2019-02-26T11:13:15.886Z,22.00
2019-02-26T11:15:43.539Z,21.20
2019-02-26T11:18:11.639Z,21.90
2019-02-26T11:20:40.214Z,22.40
2019-02-26T11:23:08.988Z,22.60
2019-02-26T11:25:37.098Z,22.10
2019-02-26T11:28:07.290Z,21.50
2019-02-26T11:30:34.450Z,21.20
2019-02-26T11:33:05.156Z,20.70
2019-02-26T11:35:31.402Z,20.90
2019-02-26T11:37:58.785Z,21.30
2019-02-26T11:40:28.227Z,21.00
2019-02-26T11:42:55.455Z,20.20
2019-02-26T11:45:22.893Z,20.20
2019-02-26T11:47:50.295Z,19.30
2019-02-26T11:50:17.933Z,19.60
2019-02-26T11:52:45.263Z,19.40
2019-02-26T11:55:13.418Z,18.80
2019-02-26T11:57:43.190Z,18.30
2019-02-26T12:00:25.663Z,17.80
2019-02-26T12:02:51.762Z,17.90
2019-02-26T12:05:19.139Z,17.50
2019-02-26T12:07:48.631Z,18.00
2019-02-26T12:10:16.103Z,18.50
2019-02-26T12:12:43.419Z,19.00
2019-02-26T12:15:12.450Z,19.10
2019-02-26T12:17:40.961Z,18.20
2019-02-26T12:20:12.134Z,17.90
2019-02-26T12:22:41.288Z,18.60
2019-02-26T12:25:11.107Z,18.70
2019-02-26T12:27:40.822Z,20.00
2019-02-26T12:30:13.358Z,20.60
2019-02-26T12:32:41.683Z,20.30
2019-02-26T12:35:12.065Z,21.20
2019-02-26T12:37:39.408Z,22.00
2019-02-26T12:40:10.324Z,22.80
2019-02-26T12:42:37.182Z,24.30
2019-02-26T12:45:07.641Z,24.30
2019-02-26T12:47:34.504Z,24.90
2019-02-26T12:50:05.190Z,25.70
2019-02-26T12:52:31.118Z,26.80
2019-02-26T12:55:00.462Z,27.70
2019-02-26T12:57:29.654Z,29.30
2019-02-26T12:59:56.980Z,30.00
2019-02-26T13:02:25.572Z,30.50
2019-02-26T13:04:53.449Z,30.80
2019-02-26T13:07:21.019Z,31.00
2019-02-26T13:09:51.993Z,30.50
2019-02-26T13:12:20.562Z,30.90
2019-02-26T13:14:48.056Z,31.50
2019-02-26T13:17:17.362Z,30.60
2019-02-26T13:19:49.107Z,29.00
2019-02-26T13:22:18.028Z,30.30
2019-02-26T13:24:45.045Z,30.00
2019-02-26T13:27:12.469Z,29.00
2019-02-26T13:29:42.586Z,27.60
2019-02-26T13:32:13.094Z,26.30
2019-02-26T13:34:38.301Z,26.30
2019-02-26T13:37:05.742Z,26.30
2019-02-26T13:39:38.474Z,25.80
2019-02-26T13:42:05.711Z,26.10
2019-02-26T13:44:31.989Z,24.80
2019-02-26T13:46:59.274Z,24.90
2019-02-26T13:49:26.594Z,25.30
2019-02-26T13:51:54.369Z,24.30
2019-02-26T13:54:21.673Z,24.30
2019-02-26T13:56:49.110Z,23.70
2019-02-26T13:59:16.921Z,23.10
2019-02-26T14:01:44.331Z,22.90
2019-02-26T14:04:11.773Z,22.30
2019-02-26T14:06:39.340Z,21.80
2019-02-26T14:09:07.044Z,21.90
2019-02-26T14:11:34.406Z,21.30
2019-02-26T14:14:02.296Z,21.10
2019-02-26T14:16:32.544Z,21.20
2019-02-26T14:18:59.020Z,20.30
2019-02-26T14:21:26.427Z,19.90
2019-02-26T14:23:53.892Z,19.70
2019-02-26T14:26:21.647Z,18.90
2019-02-26T14:28:49.080Z,18.00
2019-02-26T14:31:16.652Z,17.60
2019-02-26T14:33:44.126Z,18.30
2019-02-26T14:36:11.538Z,17.60
2019-02-26T14:38:38.957Z,18.80
2019-02-26T14:41:06.398Z,21.30
2019-02-26T14:43:33.841Z,21.40
2019-02-26T14:46:01.223Z,21.20
2019-02-26T14:48:28.653Z,20.60
2019-02-26T14:50:56.079Z,21.50
2019-02-26T14:53:23.538Z,21.60
2019-02-26T14:55:51.024Z,20.20
2019-02-26T14:58:19.952Z,20.40
2019-02-26T15:00:57.157Z,21.00
2019-02-26T15:03:16.705Z,20.80
2019-02-26T15:05:44.121Z,21.60
2019-02-26T15:08:11.572Z,21.60
2019-02-26T15:10:39.298Z,21.00
2019-02-26T15:13:06.726Z,22.60
2019-02-26T15:15:34.224Z,23.30
2019-02-26T15:18:01.960Z,23.70
2019-02-26T15:20:29.394Z,24.10
2019-02-26T15:22:56.707Z,24.30
2019-02-26T15:25:24.146Z,24.90
2019-02-26T15:27:51.674Z,25.10
2019-02-26T15:30:19.115Z,26.40
2019-02-26T15:32:46.558Z,26.60
2019-02-26T15:35:14.160Z,26.70
2019-02-26T15:37:42.184Z,27.20
2019-02-26T15:40:10.360Z,27.90
2019-02-26T15:42:37.696Z,28.90
2019-02-26T15:45:08.231Z,29.00
2019-02-26T15:47:35.666Z,30.20
2019-02-26T15:50:06.653Z,29.80
2019-02-26T15:52:33.503Z,30.20
2019-02-26T15:55:00.933Z,30.80
2019-02-26T15:57:31.070Z,31.20
2019-02-26T15:59:58.677Z,31.60
2019-02-26T16:02:28.518Z,30.70
2019-02-26T16:04:55.674Z,31.00
2019-02-26T16:07:23.091Z,31.30
2019-02-26T16:09:50.595Z,32.80
2019-02-26T16:12:18.089Z,34.00
2019-02-26T16:14:45.591Z,34.70
2019-02-26T16:17:13.057Z,35.50
2019-02-26T16:19:40.517Z,36.00
2019-02-26T16:22:08.366Z,36.60
2019-02-26T16:24:35.833Z,36.70
2019-02-26T16:27:03.389Z,36.80
2019-02-26T16:29:33.218Z,37.60
2019-02-26T16:32:02.686Z,38.80
2019-02-26T16:34:30.264Z,39.60
2019-02-26T16:36:57.735Z,39.90
2019-02-26T16:39:25.512Z,39.20
2019-02-26T16:41:53.527Z,38.90
2019-02-26T16:44:22.567Z,40.00
2019-02-26T16:46:50.215Z,40.10
2019-02-26T16:49:17.689Z,40.60
2019-02-26T16:51:45.155Z,41.20
2019-02-26T16:54:12.621Z,40.90
2019-02-26T16:56:40.188Z,40.80
2019-02-26T16:59:08.296Z,41.20
2019-02-26T17:01:36.321Z,41.80
2019-02-26T17:04:05.575Z,41.80
2019-02-26T17:06:33.074Z,42.00
2019-02-26T17:09:00.842Z,42.90
2019-02-26T17:11:28.552Z,44.00
2019-02-26T17:13:56.056Z,44.40
2019-02-26T17:16:23.981Z,45.20
2019-02-26T17:18:51.414Z,44.90
2019-02-26T17:21:18.811Z,44.90
2019-02-26T17:23:47.107Z,45.10
2019-02-26T17:26:15.307Z,45.40
2019-02-26T17:28:45.328Z,46.30
2019-02-26T17:31:13.145Z,46.30
2019-02-26T17:33:40.672Z,46.30
2019-02-26T17:36:08.178Z,46.20
2019-02-26T17:38:35.700Z,46.20
2019-02-26T17:41:03.235Z,46.90
2019-02-26T17:43:50.206Z,47.20
2019-02-26T17:46:18.184Z,47.30
2019-02-26T17:48:46.053Z,47.50
2019-02-26T17:51:13.560Z,47.60
2019-02-26T17:53:41.368Z,47.20
2019-02-26T17:56:08.829Z,47.70
2019-02-26T17:58:36.658Z,48.20
2019-02-26T18:01:04.408Z,48.50
2019-02-26T18:03:31.907Z,48.70
2019-02-26T18:05:59.477Z,48.80
2019-02-26T18:08:27.489Z,48.60
2019-02-26T18:10:55.022Z,48.70
2019-02-26T18:13:22.620Z,49.40
2019-02-26T18:15:50.158Z,49.80
2019-02-26T18:18:17.639Z,49.90
2019-02-26T18:20:45.188Z,50.40
2019-02-26T18:23:12.660Z,50.20
2019-02-26T18:25:40.158Z,50.70
2019-02-26T18:28:08.876Z,51.10
2019-02-26T18:30:37.827Z,51.60
2019-02-26T18:33:24.791Z,51.50
2019-02-26T18:35:52.704Z,51.50
2019-02-26T18:38:20.225Z,51.50
2019-02-26T18:40:47.749Z,52.00
2019-02-26T18:43:15.509Z,52.60
2019-02-26T18:45:43.115Z,52.80
2019-02-26T18:48:12.641Z,53.10
2019-02-26T18:50:39.853Z,52.90
2019-02-26T18:53:07.467Z,53.00
2019-02-26T18:55:34.963Z,53.20
2019-02-26T18:58:02.393Z,53.30
2019-02-26T19:00:29.977Z,53.70
2019-02-26T19:02:57.436Z,53.90
2019-02-26T19:05:24.977Z,53.80
2019-02-26T19:07:52.872Z,54.20
2019-02-26T19:10:21.761Z,54.10
2019-02-26T19:12:49.233Z,54.20
2019-02-26T19:15:17.328Z,54.70
2019-02-26T19:17:47.113Z,55.10
2019-02-26T19:20:15.596Z,55.40
2019-02-26T19:22:43.495Z,56.00
2019-02-26T19:25:11.031Z,55.60
2019-02-26T19:27:39.287Z,55.50
2019-02-26T19:30:09.652Z,55.80
2019-02-26T19:32:37.656Z,56.50
2019-02-26T19:35:12.089Z,56.20
2019-02-26T19:37:35.290Z,56.10
2019-02-26T19:40:05.746Z,56.60
2019-02-26T19:42:32.619Z,57.00
2019-02-26T19:45:00.345Z,56.90
2019-02-26T19:47:27.964Z,56.90
2019-02-26T19:49:55.671Z,57.00
2019-02-26T19:52:23.171Z,57.30
2019-02-26T19:54:50.763Z,57.40
2019-02-26T19:57:18.196Z,57.40
2019-02-26T19:59:47.094Z,57.60
2019-02-26T20:02:15.065Z,57.60
2019-02-26T20:04:42.597Z,57.70
2019-02-26T20:07:10.666Z,57.80
2019-02-26T20:09:38.838Z,58.50
2019-02-26T20:12:07.479Z,58.30
2019-02-26T20:14:35.306Z,58.80
2019-02-26T20:17:13.757Z,59.10
2019-02-26T20:19:32.423Z,59.30
2019-02-26T20:22:00.163Z,59.90
2019-02-26T20:24:27.828Z,60.10
2019-02-26T20:26:55.359Z,59.70
2019-02-26T20:29:22.890Z,60.10
2019-02-26T20:31:50.426Z,59.90
2019-02-26T20:34:18.353Z,59.90
2019-02-26T20:36:46.210Z,60.00
2019-02-26T20:39:13.651Z,60.10
2019-02-26T20:41:41.306Z,60.50
2019-02-26T20:44:10.055Z,60.20
2019-02-26T20:46:38.410Z,59.80
2019-02-26T20:49:05.869Z,59.60
2019-02-26T20:51:33.960Z,59.70
2019-02-26T20:54:01.478Z,60.30
2019-02-26T20:56:31.007Z,60.40
2019-02-26T20:58:58.689Z,60.60
2019-02-26T21:01:26.136Z,60.70
2019-02-26T21:03:53.647Z,60.60
2019-02-26T21:06:21.187Z,60.90
2019-02-26T21:08:48.693Z,61.00
2019-02-26T21:11:16.196Z,61.10
2019-02-26T21:13:43.661Z,61.10
2019-02-26T21:16:11.625Z,61.20
2019-02-26T21:18:39.433Z,61.10
2019-02-26T21:21:07.060Z,61.20
2019-02-26T21:23:34.945Z,61.30
2019-02-26T21:26:03.412Z,61.10
2019-02-26T21:28:33.312Z,61.50
2019-02-26T21:31:00.284Z,61.60
2019-02-26T21:33:30.555Z,61.50
2019-02-26T21:35:57.081Z,61.80
2019-02-26T21:38:24.549Z,61.90
2019-02-26T21:40:52.142Z,61.70
2019-02-26T21:43:19.571Z,61.60
2019-02-26T21:45:49.088Z,61.40
2019-02-26T21:48:16.243Z,62.00
2019-02-26T21:50:43.596Z,62.20
2019-02-26T21:53:12.718Z,62.50
2019-02-26T21:55:44.301Z,62.80
2019-02-26T21:58:09.545Z,62.80
2019-02-26T22:00:38.992Z,63.20
2019-02-26T22:03:06.568Z,62.90
2019-02-26T22:05:37.417Z,63.10
2019-02-26T22:08:03.285Z,63.50
2019-02-26T22:10:30.708Z,63.50
2019-02-26T22:12:58.415Z,63.30
2019-02-26T22:15:26.030Z,63.40
2019-02-26T22:17:55.732Z,63.60
2019-02-26T22:20:35.378Z,63.60
2019-02-26T22:22:52.284Z,64.10
2019-02-26T22:25:19.637Z,64.30
2019-02-26T22:27:47.453Z,64.70
2019-02-26T22:30:15.267Z,64.70
2019-02-26T22:32:42.713Z,64.70
2019-02-26T22:35:10.163Z,65.00
2019-02-26T22:37:38.944Z,64.60
2019-02-26T22:40:07.512Z,64.60
2019-02-26T22:42:34.942Z,64.90
2019-02-26T22:45:02.358Z,65.20
2019-02-26T22:47:30.211Z,64.80
2019-02-26T22:49:57.647Z,64.60
2019-02-26T22:52:25.058Z,64.60
2019-02-26T22:54:52.346Z,64.50
2019-02-26T22:57:21.239Z,65.10
2019-02-26T22:59:49.138Z,65.10
2019-02-26T23:02:16.549Z,65.00
2019-02-26T23:04:44.370Z,64.80
2019-02-26T23:07:11.968Z,65.00
2019-02-26T23:09:39.663Z,65.00
2019-02-26T23:12:07.448Z,65.00
2019-02-26T23:14:38.538Z,64.90
2019-02-26T23:17:06.388Z,64.80
2019-02-26T23:19:36.428Z,65.10
2019-02-26T23:22:03.102Z,65.30
2019-02-26T23:24:30.426Z,65.60
2019-02-26T23:26:58.862Z,65.30
2019-02-26T23:29:28.103Z,65.30
2019-02-26T23:31:56.002Z,65.80
2019-02-26T23:34:23.751Z,65.80
2019-02-26T23:36:51.068Z,66.30
2019-02-26T23:39:18.773Z,66.50
2019-02-26T23:41:46.530Z,66.60
2019-02-26T23:44:17.783Z,66.50
2019-02-26T23:46:43.506Z,67.00
2019-02-26T23:49:11.775Z,67.10
2019-02-26T23:51:40.127Z,67.20
2019-02-26T23:54:07.960Z,67.30
2019-02-26T23:56:35.626Z,66.90
2019-02-26T23:59:04.114Z,67.10
